createdAt,value
2019-03-25T00:00:43.586Z,83.43
2019-03-25T00:03:17.222Z,67.80
2019-03-25T00:05:47.669Z,83.77
2019-03-25T00:08:18.110Z,71.47
2019-03-25T00:10:48.598Z,78.70
2019-03-25T00:13:19.045Z,75.87
2019-03-25T00:15:49.540Z,84.97
2019-03-25T00:18:20.069Z,82.63
2019-03-25T00:20:50.567Z,84.57
2019-03-25T00:23:20.998Z,76.40
2019-03-25T00:25:51.457Z,75.53
2019-03-25T00:28:21.893Z,74.93
2019-03-25T00:30:52.382Z,69.77
2019-03-25T00:33:22.824Z,79.57
2019-03-25T00:35:53.301Z,74.77
2019-03-25T00:38:23.743Z,75.17
2019-03-25T00:40:54.221Z,75.53
2019-03-25T00:43:24.682Z,78.07
2019-03-25T00:45:55.131Z,75.80
2019-03-25T00:48:25.535Z,84.37
2019-03-25T00:51:01.758Z,80.47
2019-03-25T00:53:32.181Z,81.73
2019-03-25T00:56:02.579Z,79.83
2019-03-25T00:58:33.014Z,86.60
2019-03-25T01:01:03.470Z,76.60
2019-03-25T01:03:33.874Z,81.50
2019-03-25T01:06:04.432Z,77.87
2019-03-25T01:08:34.948Z,81.67
2019-03-25T01:11:05.516Z,76.70
2019-03-25T01:13:37.865Z,71.77
2019-03-25T01:16:14.336Z,80.60
2019-03-25T01:18:44.827Z,72.63
2019-03-25T01:21:15.277Z,84.87
2019-03-25T01:23:45.697Z,75.73
2019-03-25T01:26:16.109Z,74.33
2019-03-25T01:28:46.543Z,79.07
2019-03-25T01:31:16.993Z,87.47
2019-03-25T01:33:47.413Z,86.03
2019-03-25T01:36:17.879Z,84.27
2019-03-25T01:38:48.300Z,101.43
2019-03-25T01:41:18.784Z,99.00
2019-03-25T01:43:49.199Z,84.20
2019-03-25T01:46:19.694Z,87.20
2019-03-25T01:48:50.163Z,93.47
2019-03-25T01:51:21.735Z,96.27
2019-03-25T01:53:52.126Z,96.00
2019-03-25T01:56:22.603Z,83.77
2019-03-25T01:58:53.190Z,80.97
2019-03-25T02:01:23.662Z,96.53
2019-03-25T02:03:54.107Z,91.63
2019-03-25T02:06:24.578Z,79.07
2019-03-25T02:08:54.965Z,91.70
2019-03-25T02:11:25.476Z,91.80
2019-03-25T02:13:55.941Z,86.83
2019-03-25T02:16:26.393Z,91.43
2019-03-25T02:18:56.808Z,79.47
2019-03-25T02:21:27.259Z,86.17
2019-03-25T02:23:57.672Z,86.57
2019-03-25T02:26:28.147Z,93.13
2019-03-25T02:28:58.561Z,90.37
2019-03-25T02:31:29.002Z,96.77
2019-03-25T02:33:59.397Z,90.07
2019-03-25T02:36:29.860Z,86.60
2019-03-25T02:39:00.273Z,81.53
2019-03-25T02:41:30.741Z,83.63
2019-03-25T02:44:01.151Z,94.47
2019-03-25T02:46:31.621Z,87.70
2019-03-25T02:49:02.093Z,100.77
2019-03-25T02:51:33.633Z,104.10
2019-03-25T02:54:04.080Z,95.43
2019-03-25T02:56:34.542Z,119.77
2019-03-25T02:59:04.978Z,116.73
2019-03-25T03:01:35.482Z,134.00
2019-03-25T03:04:06.319Z,128.77
2019-03-25T03:06:36.783Z,150.90
2019-03-25T03:09:09.777Z,129.13
2019-03-25T03:11:40.273Z,139.43
2019-03-25T03:14:10.653Z,161.10
2019-03-25T03:16:41.119Z,128.03
2019-03-25T03:19:11.536Z,156.97
2019-03-25T03:21:42.036Z,171.90
2019-03-25T03:24:12.507Z,176.03
2019-03-25T03:26:42.990Z,167.53
2019-03-25T03:29:13.489Z,165.10
2019-03-25T03:31:43.933Z,182.90
2019-03-25T03:34:14.394Z,199.70
2019-03-25T03:36:44.858Z,188.77
2019-03-25T03:39:15.275Z,190.10
2019-03-25T03:41:45.751Z,203.30
2019-03-25T03:44:16.183Z,172.27
2019-03-25T03:46:46.649Z,191.77
2019-03-25T03:49:17.099Z,193.03
2019-03-25T03:51:48.539Z,181.77
2019-03-25T03:54:19.163Z,177.73
2019-03-25T03:56:51.410Z,177.97
2019-03-25T03:59:21.842Z,170.90
2019-03-25T04:01:52.334Z,165.07
2019-03-25T04:04:22.738Z,163.63
2019-03-25T04:06:53.226Z,175.20
2019-03-25T04:09:23.670Z,157.03
2019-03-25T04:11:54.114Z,174.00
2019-03-25T04:14:24.558Z,167.60
2019-03-25T04:16:54.997Z,167.67
2019-03-25T04:19:25.403Z,159.80
2019-03-25T04:21:55.933Z,159.40
2019-03-25T04:24:26.397Z,157.20
2019-03-25T04:26:56.882Z,156.20
2019-03-25T04:29:27.259Z,152.80
2019-03-25T04:31:57.704Z,151.90
2019-03-25T04:34:28.119Z,153.67
2019-03-25T04:36:58.591Z,167.83
2019-03-25T04:39:28.990Z,150.03
2019-03-25T04:41:59.470Z,140.87
2019-03-25T04:44:29.906Z,129.73
2019-03-25T04:47:00.390Z,142.40
2019-03-25T04:49:30.814Z,158.63
2019-03-25T04:52:02.539Z,155.03
2019-03-25T04:54:32.983Z,160.80
2019-03-25T04:57:03.481Z,145.30
2019-03-25T04:59:33.904Z,142.27
2019-03-25T05:02:04.363Z,132.83
2019-03-25T05:04:34.795Z,138.07
2019-03-25T05:07:05.260Z,160.80
2019-03-25T05:09:35.709Z,131.77
2019-03-25T05:12:06.143Z,107.40
2019-03-25T05:14:36.572Z,122.03
2019-03-25T05:17:07.056Z,109.30
2019-03-25T05:19:37.509Z,107.80
2019-03-25T05:22:08.003Z,78.17
2019-03-25T05:24:38.419Z,72.33
2019-03-25T05:27:08.881Z,54.57
2019-03-25T05:29:39.304Z,47.00
2019-03-25T05:32:09.770Z,46.17
2019-03-25T05:34:40.191Z,46.57
2019-03-25T05:37:10.662Z,46.87
2019-03-25T05:39:41.065Z,43.53
2019-03-25T05:42:11.553Z,37.43
2019-03-25T05:44:41.977Z,41.53
2019-03-25T05:47:12.428Z,45.83
2019-03-25T05:49:42.869Z,35.80
2019-03-25T05:52:14.327Z,40.93
2019-03-25T05:54:44.746Z,36.63
2019-03-25T05:57:18.053Z,39.13
2019-03-25T05:59:48.482Z,41.90
2019-03-25T06:02:19.199Z,48.10
2019-03-25T06:04:49.872Z,40.60
2019-03-25T06:07:21.797Z,37.53
2019-03-25T06:09:52.220Z,58.43
2019-03-25T06:12:22.686Z,40.13
2019-03-25T06:14:53.335Z,33.70
2019-03-25T06:17:26.546Z,36.73
2019-03-25T06:19:56.991Z,36.60
2019-03-25T06:22:27.460Z,43.00
2019-03-25T06:24:57.864Z,37.13
2019-03-25T06:27:28.357Z,40.57
2019-03-25T06:29:58.745Z,38.83
2019-03-25T06:32:29.224Z,34.63
2019-03-25T06:34:59.647Z,36.40
2019-03-25T06:37:30.097Z,36.90
2019-03-25T06:40:00.545Z,39.40
2019-03-25T06:42:30.949Z,37.33
2019-03-25T06:45:01.391Z,42.03
2019-03-25T06:47:31.838Z,46.10
2019-03-25T06:50:02.246Z,33.43
2019-03-25T06:52:33.875Z,59.67
2019-03-25T06:55:05.284Z,40.40
2019-03-25T06:57:38.447Z,32.63
2019-03-25T07:00:09.610Z,32.13
2019-03-25T07:02:40.049Z,45.87
2019-03-25T07:05:10.994Z,36.57
2019-03-25T07:07:41.526Z,33.40
2019-03-25T07:10:12.148Z,44.47
2019-03-25T07:12:42.599Z,32.60
2019-03-25T07:15:13.059Z,30.23
2019-03-25T07:17:43.531Z,32.63
2019-03-25T07:20:14.658Z,39.77
2019-03-25T07:22:45.126Z,31.33
2019-03-25T07:25:15.570Z,49.43
2019-03-25T07:27:46.050Z,29.23
2019-03-25T07:30:16.477Z,30.90
2019-03-25T07:32:46.978Z,51.50
2019-03-25T07:35:17.547Z,21.47
2019-03-25T07:37:48.014Z,19.80
2019-03-25T07:40:18.597Z,20.33
2019-03-25T07:42:49.098Z,23.80
2019-03-25T07:45:19.552Z,12.73
2019-03-25T07:47:50.018Z,29.10
2019-03-25T07:50:20.453Z,18.70
2019-03-25T07:52:51.876Z,17.07
2019-03-25T07:55:22.335Z,23.53
2019-03-25T07:57:52.825Z,40.60
2019-03-25T08:00:23.328Z,19.37
2019-03-25T08:02:54.196Z,20.17
2019-03-25T08:05:24.715Z,26.07
2019-03-25T08:07:57.922Z,36.43
2019-03-25T08:10:33.134Z,25.97
2019-03-25T08:13:03.788Z,28.60
2019-03-25T08:15:34.344Z,18.73
2019-03-25T08:18:07.386Z,21.23
2019-03-25T08:20:39.366Z,20.23
2019-03-25T08:23:09.841Z,16.93
2019-03-25T08:25:45.538Z,15.03
2019-03-25T08:28:19.519Z,17.23
2019-03-25T08:30:51.605Z,15.63
2019-03-25T08:33:24.036Z,43.90
2019-03-25T08:35:54.488Z,18.10
2019-03-25T08:38:24.904Z,14.40
2019-03-25T08:40:55.325Z,16.40
2019-03-25T08:43:26.251Z,35.10
2019-03-25T08:45:56.939Z,16.27
2019-03-25T08:48:30.620Z,16.07
2019-03-25T08:51:01.026Z,17.57
2019-03-25T08:53:39.490Z,15.70
2019-03-25T08:56:09.998Z,16.80
2019-03-25T08:58:40.467Z,21.97
2019-03-25T09:01:10.879Z,18.53
2019-03-25T09:03:41.281Z,17.47
2019-03-25T09:06:21.556Z,19.20
2019-03-25T09:08:52.090Z,18.67
2019-03-25T09:11:26.841Z,16.77
2019-03-25T09:14:01.414Z,17.60
2019-03-25T09:16:34.921Z,16.50
2019-03-25T09:19:11.687Z,26.70
2019-03-25T09:21:42.822Z,14.67
2019-03-25T09:24:13.369Z,16.37
2019-03-25T09:26:46.068Z,20.83
2019-03-25T09:29:20.003Z,18.17
2019-03-25T09:31:53.553Z,21.93
2019-03-25T09:34:25.052Z,15.70
2019-03-25T09:36:57.503Z,26.13
2019-03-25T09:39:28.004Z,21.53
2019-03-25T09:41:58.489Z,17.33
2019-03-25T09:44:29.120Z,24.27
2019-03-25T09:46:59.569Z,23.70
2019-03-25T09:49:30.154Z,15.97
2019-03-25T09:52:02.824Z,15.27
2019-03-25T09:54:34.389Z,14.90
2019-03-25T09:57:08.980Z,16.45
2019-03-25T09:59:39.445Z,17.80
2019-03-25T10:02:09.958Z,14.00
2019-03-25T10:04:40.699Z,17.80
2019-03-25T10:07:15.788Z,25.10
2019-03-25T10:09:46.310Z,23.47
2019-03-25T10:12:18.308Z,26.67
2019-03-25T10:14:48.842Z,18.03
2019-03-25T10:17:19.754Z,15.87
2019-03-25T10:19:50.315Z,16.20
2019-03-25T10:22:20.819Z,39.73
2019-03-25T10:24:51.898Z,19.70
2019-03-25T10:27:22.473Z,38.37
2019-03-25T10:33:11.761Z,18.33
2019-03-25T10:35:43.836Z,15.90
2019-03-25T10:38:19.554Z,19.90
2019-03-25T10:40:46.591Z,15.45
2019-03-25T10:43:17.061Z,15.90
2019-03-25T10:45:47.661Z,16.47
2019-03-25T10:48:21.296Z,20.03
2019-03-25T10:51:00.408Z,17.70
2019-03-25T10:53:30.809Z,18.13
2019-03-25T10:56:02.996Z,15.70
2019-03-25T10:58:33.413Z,47.03
2019-03-25T11:01:03.922Z,15.47
2019-03-25T11:03:34.340Z,22.50
2019-03-25T11:06:04.816Z,16.57
2019-03-25T11:08:35.355Z,23.37
2019-03-25T11:11:06.426Z,19.67
2019-03-25T11:13:37.139Z,21.43
2019-03-25T11:16:08.019Z,23.57
2019-03-25T11:18:38.643Z,18.25
2019-03-25T11:21:09.154Z,14.38
2019-03-25T11:23:39.594Z,14.43
2019-03-25T11:26:10.086Z,24.82
2019-03-25T11:28:40.554Z,22.82
2019-03-25T11:31:11.025Z,13.78
2019-03-25T11:33:41.445Z,20.08
2019-03-25T11:36:12.257Z,19.98
2019-03-25T11:38:45.507Z,15.03
2019-03-25T11:41:15.979Z,12.88
2019-03-25T11:43:46.414Z,18.05
2019-03-25T11:46:16.897Z,10.28
2019-03-25T11:48:47.369Z,11.48
2019-03-25T11:51:17.846Z,12.68
2019-03-25T11:53:48.396Z,15.90
2019-03-25T11:56:21.446Z,10.95
2019-03-25T11:58:53.885Z,13.78
2019-03-25T12:01:24.390Z,19.00
2019-03-25T12:03:54.938Z,15.70
2019-03-25T12:06:25.749Z,18.60
2019-03-25T12:08:56.250Z,16.90
2019-03-25T12:11:27.337Z,11.12
2019-03-25T12:14:00.842Z,18.07
2019-03-25T12:16:32.484Z,24.55
2019-03-25T12:19:05.526Z,34.08
2019-03-25T12:21:36.015Z,15.90
2019-03-25T12:24:06.595Z,17.95
2019-03-25T12:26:37.254Z,17.45
2019-03-25T12:29:10.022Z,15.55
2019-03-25T12:31:42.000Z,26.40
2019-03-25T12:34:14.857Z,16.62
2019-03-25T12:36:50.207Z,14.28
2019-03-25T12:39:20.663Z,18.57
2019-03-25T12:41:51.169Z,20.25
2019-03-25T12:44:23.351Z,16.60
2019-03-25T12:46:54.220Z,20.90
2019-03-25T12:49:27.718Z,17.50
2019-03-25T12:51:58.613Z,23.30
2019-03-25T12:54:29.415Z,16.93
2019-03-25T12:57:01.624Z,16.37
2019-03-25T12:59:40.775Z,15.50
2019-03-25T13:02:04.666Z,16.97
2019-03-25T13:04:35.201Z,23.30
2019-03-25T13:07:06.083Z,14.07
2019-03-25T13:09:36.584Z,27.87
2019-03-25T13:12:07.498Z,12.15
2019-03-25T13:14:39.064Z,16.27
2019-03-25T13:17:09.666Z,19.70
2019-03-25T13:19:40.301Z,20.70
2019-03-25T13:22:10.809Z,18.63
2019-03-25T13:24:41.982Z,16.23
2019-03-25T13:27:13.864Z,20.77
2019-03-25T13:29:52.400Z,16.37
2019-03-25T13:32:18.379Z,25.47
2019-03-25T13:34:48.891Z,18.87
2019-03-25T13:37:20.287Z,19.53
2019-03-25T13:39:51.379Z,24.23
2019-03-25T13:42:22.457Z,21.10
2019-03-25T13:44:55.593Z,19.77
2019-03-25T13:47:25.730Z,20.40
2019-03-25T13:49:58.210Z,23.90
2019-03-25T13:52:29.206Z,22.03
2019-03-25T13:55:00.469Z,17.87
2019-03-25T13:57:42.606Z,20.50
2019-03-25T14:00:13.983Z,17.03
2019-03-25T14:02:44.632Z,36.10
2019-03-25T14:05:15.329Z,34.83
2019-03-25T14:08:14.430Z,36.60
2019-03-25T14:10:44.593Z,47.33
2019-03-25T14:13:16.348Z,68.87
2019-03-25T14:15:46.803Z,31.67
2019-03-25T14:18:17.605Z,34.87
2019-03-25T14:20:52.371Z,26.90
2019-03-25T14:23:23.082Z,26.87
2019-03-25T14:25:53.566Z,25.43
2019-03-25T14:28:25.696Z,28.90
2019-03-25T14:31:00.477Z,24.00
2019-03-25T14:33:31.029Z,25.40
2019-03-25T14:36:02.103Z,24.77
2019-03-25T14:38:32.650Z,20.87
2019-03-25T14:41:08.548Z,31.80
2019-03-25T14:44:08.941Z,29.17
2019-03-25T14:46:56.496Z,19.80
2019-03-25T14:49:42.688Z,17.30
2019-03-25T14:52:14.920Z,25.23
2019-03-25T14:54:51.852Z,19.17
2019-03-25T14:57:28.207Z,18.27
2019-03-25T15:00:01.823Z,23.53
2019-03-25T15:02:32.504Z,18.90
2019-03-25T15:05:05.216Z,19.97
2019-03-25T15:07:35.651Z,17.73
2019-03-25T15:10:08.509Z,16.20
2019-03-25T15:12:40.536Z,24.83
2019-03-25T15:15:12.078Z,22.13
2019-03-25T15:17:52.656Z,34.77
2019-03-25T15:20:27.936Z,28.73
2019-03-25T15:22:58.403Z,27.17
2019-03-25T15:25:28.928Z,30.97
2019-03-25T15:27:59.551Z,22.97
2019-03-25T15:30:35.961Z,25.67
2019-03-25T15:33:06.639Z,28.07
2019-03-25T15:35:38.303Z,34.97
2019-03-25T15:38:10.437Z,35.27
2019-03-25T15:40:41.020Z,36.07
2019-03-25T15:43:11.547Z,46.87
2019-03-25T15:45:42.029Z,34.20
2019-03-25T15:48:12.519Z,44.47
2019-03-25T15:50:43.169Z,42.67
2019-03-25T15:53:13.633Z,30.23
2019-03-25T15:55:44.128Z,91.37
2019-03-25T15:58:25.338Z,61.77
2019-03-25T16:00:48.604Z,120.37
2019-03-25T16:03:19.147Z,37.63
2019-03-25T16:05:50.050Z,34.60
2019-03-25T16:08:21.926Z,32.23
2019-03-25T16:10:52.458Z,36.93
2019-03-25T16:13:22.984Z,32.93
2019-03-25T16:15:53.732Z,32.70
2019-03-25T16:18:38.175Z,38.60
2019-03-25T16:21:09.191Z,41.20
2019-03-25T16:23:39.719Z,39.57
2019-03-25T16:26:10.213Z,36.03
2019-03-25T16:28:40.624Z,42.73
2019-03-25T16:31:11.120Z,48.40
2019-03-25T16:33:41.526Z,36.77
2019-03-25T16:36:11.997Z,39.17
2019-03-25T16:38:42.416Z,41.30
2019-03-25T16:41:12.890Z,33.00
2019-03-25T16:43:43.333Z,37.57
2019-03-25T16:46:13.810Z,35.20
2019-03-25T16:48:44.287Z,49.63
2019-03-25T16:51:14.687Z,39.53
2019-03-25T16:53:45.084Z,38.97
2019-03-25T16:56:15.528Z,27.63
2019-03-25T16:58:45.932Z,33.47
2019-03-25T17:01:15.685Z,32.50
2019-03-25T17:03:46.198Z,47.50
2019-03-25T17:06:16.610Z,33.47
2019-03-25T17:08:47.047Z,39.67
2019-03-25T17:11:19.462Z,37.80
2019-03-25T17:13:49.569Z,36.50
2019-03-25T17:16:19.973Z,36.10
2019-03-25T17:18:50.399Z,36.33
2019-03-25T17:21:20.785Z,34.40
2019-03-25T17:23:51.216Z,29.53
2019-03-25T17:26:21.602Z,32.63
2019-03-25T17:28:52.067Z,26.87
2019-03-25T17:31:22.458Z,27.90
2019-03-25T17:33:52.841Z,24.67
2019-03-25T17:36:23.237Z,22.77
2019-03-25T17:38:53.709Z,27.07
2019-03-25T17:41:24.218Z,24.07
2019-03-25T17:43:54.661Z,23.47
2019-03-25T17:46:25.107Z,21.83
2019-03-25T17:48:55.540Z,26.40
2019-03-25T17:51:25.936Z,16.20
2019-03-25T17:53:56.416Z,18.10
2019-03-25T17:56:26.828Z,15.80
2019-03-25T17:58:57.278Z,17.83
2019-03-25T18:01:32.561Z,16.30
2019-03-25T18:04:02.347Z,16.70
2019-03-25T18:06:32.794Z,16.80
2019-03-25T18:09:04.468Z,15.13
2019-03-25T18:11:34.891Z,18.40
2019-03-25T18:14:05.596Z,19.03
2019-03-25T18:16:36.028Z,23.03
2019-03-25T18:19:06.499Z,26.23
2019-03-25T18:21:36.907Z,32.03
2019-03-25T18:24:09.360Z,28.17
2019-03-25T18:26:43.409Z,68.03
2019-03-25T18:29:17.055Z,66.93
2019-03-25T18:31:47.352Z,51.60
2019-03-25T18:34:17.812Z,47.13
2019-03-25T18:36:48.250Z,56.87
2019-03-25T18:39:18.696Z,66.97
2019-03-25T18:41:49.143Z,57.97
2019-03-25T18:44:19.614Z,33.57
2019-03-25T18:46:50.108Z,85.63
2019-03-25T18:49:20.634Z,60.43
2019-03-25T18:51:51.049Z,38.00
2019-03-25T18:54:21.534Z,75.17
2019-03-25T18:56:51.935Z,66.50
2019-03-25T18:59:22.415Z,89.43
2019-03-25T19:01:54.641Z,62.40
2019-03-25T19:04:27.292Z,42.33
2019-03-25T19:06:58.129Z,39.77
2019-03-25T19:09:28.596Z,30.43
2019-03-25T19:11:58.993Z,29.97
2019-03-25T19:14:29.431Z,28.30
2019-03-25T19:16:59.847Z,25.13
2019-03-25T19:19:30.313Z,27.40
2019-03-25T19:22:00.749Z,25.83
2019-03-25T19:24:31.196Z,20.73
2019-03-25T19:27:03.249Z,22.37
2019-03-25T19:29:33.700Z,23.57
2019-03-25T19:32:06.845Z,21.50
2019-03-25T19:34:36.276Z,21.90
2019-03-25T19:37:06.683Z,22.83
2019-03-25T19:39:37.202Z,24.57
2019-03-25T19:42:07.609Z,28.93
2019-03-25T19:44:38.061Z,25.43
2019-03-25T19:47:08.423Z,27.93
2019-03-25T19:49:38.862Z,27.97
2019-03-25T19:52:09.624Z,32.50
2019-03-25T19:54:40.128Z,28.10
2019-03-25T19:57:10.576Z,32.83
2019-03-25T19:59:41.058Z,26.73
2019-03-25T20:02:19.065Z,29.23
2019-03-25T20:04:44.669Z,27.43
2019-03-25T20:07:15.127Z,27.17
2019-03-25T20:09:45.652Z,31.33
2019-03-25T20:12:16.042Z,28.10
2019-03-25T20:14:46.530Z,27.53
2019-03-25T20:17:16.964Z,26.87
2019-03-25T20:19:47.409Z,24.93
2019-03-25T20:22:17.809Z,27.17
2019-03-25T20:24:48.250Z,25.60
2019-03-25T20:27:18.688Z,27.00
2019-03-25T20:29:49.179Z,26.43
2019-03-25T20:32:31.286Z,26.47
2019-03-25T20:34:51.840Z,27.20
2019-03-25T20:37:22.249Z,27.80
2019-03-25T20:39:52.719Z,29.27
2019-03-25T20:42:23.152Z,26.93
2019-03-25T20:44:53.755Z,33.37
2019-03-25T20:47:24.141Z,28.33
2019-03-25T20:49:54.595Z,23.30
2019-03-25T20:52:25.032Z,32.67
2019-03-25T20:54:55.550Z,35.87
2019-03-25T20:57:25.999Z,29.73
2019-03-25T20:59:56.475Z,34.50
2019-03-25T21:02:27.796Z,45.03
2019-03-25T21:04:58.317Z,32.17
2019-03-25T21:07:28.835Z,34.73
2019-03-25T21:09:59.378Z,37.17
2019-03-25T21:12:29.841Z,30.07
2019-03-25T21:15:00.372Z,30.10
2019-03-25T21:17:30.833Z,33.67
2019-03-25T21:20:01.329Z,25.83
2019-03-25T21:22:31.730Z,30.90
2019-03-25T21:25:02.110Z,27.23
2019-03-25T21:27:32.526Z,26.97
2019-03-25T21:30:02.951Z,26.90
2019-03-25T21:32:33.340Z,24.73
2019-03-25T21:35:04.372Z,27.17
2019-03-25T21:37:34.785Z,20.67
2019-03-25T21:40:07.707Z,21.20
2019-03-25T21:42:38.023Z,15.57
2019-03-25T21:45:10.620Z,19.60
2019-03-25T21:47:41.034Z,25.10
2019-03-25T21:50:11.762Z,23.20
2019-03-25T21:52:42.233Z,16.67
2019-03-25T21:55:12.846Z,21.40
2019-03-25T21:57:43.298Z,20.13
2019-03-25T22:00:13.956Z,22.27
2019-03-25T22:02:45.226Z,20.10
2019-03-25T22:05:15.773Z,23.80
2019-03-25T22:07:46.177Z,19.73
2019-03-25T22:10:16.588Z,20.30
2019-03-25T22:12:47.008Z,25.17
2019-03-25T22:15:17.591Z,17.83
2019-03-25T22:17:48.011Z,15.17
2019-03-25T22:20:18.539Z,19.60
2019-03-25T22:22:48.933Z,18.03
2019-03-25T22:25:19.406Z,20.57
2019-03-25T22:27:49.793Z,21.00
2019-03-25T22:30:20.238Z,20.03
2019-03-25T22:32:50.659Z,36.73
2019-03-25T22:35:21.090Z,39.07
2019-03-25T22:37:51.512Z,32.57
2019-03-25T22:40:21.991Z,40.43
2019-03-25T22:42:52.405Z,38.40
2019-03-25T22:45:29.836Z,38.63
2019-03-25T22:48:00.249Z,35.20
2019-03-25T22:50:32.068Z,46.83
2019-03-25T22:53:02.483Z,46.97
2019-03-25T22:55:32.867Z,56.23
2019-03-25T22:58:03.262Z,71.87
2019-03-25T23:00:41.697Z,60.17
2019-03-25T23:03:13.850Z,51.67
2019-03-25T23:05:44.411Z,37.80
2019-03-25T23:08:14.823Z,28.80
2019-03-25T23:10:45.297Z,23.73
2019-03-25T23:13:15.718Z,25.37
2019-03-25T23:15:46.165Z,21.80
2019-03-25T23:18:16.571Z,25.40
2019-03-25T23:20:47.028Z,24.77
2019-03-25T23:23:17.443Z,24.43
2019-03-25T23:25:47.907Z,17.77
2019-03-25T23:28:18.301Z,20.07
2019-03-25T23:30:48.738Z,20.67
2019-03-25T23:33:19.130Z,17.03
2019-03-25T23:35:49.577Z,18.47
2019-03-25T23:38:20.011Z,21.83
2019-03-25T23:40:50.370Z,20.67
2019-03-25T23:43:20.867Z,17.63
2019-03-25T23:45:51.325Z,22.33
2019-03-25T23:48:21.709Z,17.60
2019-03-25T23:50:52.153Z,14.43
2019-03-25T23:53:22.554Z,16.63
2019-03-25T23:55:53.006Z,14.77
2019-03-25T23:58:23.407Z,15.23
